sensor_id;sensor_type;location;lat;lon;timestamp;temperature;humidity
40151;DHT22;25866;52.420;10.640;2023-05-10T00:02:16;13.70;94.50
40151;DHT22;25866;52.420;10.640;2023-05-10T00:04:42;13.70;94.60
40151;DHT22;25866;52.420;10.640;2023-05-10T00:07:07;13.70;94.50
40151;DHT22;25866;52.420;10.640;2023-05-10T00:09:33;13.60;94.60
40151;DHT22;25866;52.420;10.640;2023-05-10T00:11:59;13.60;94.80
40151;DHT22;25866;52.420;10.640;2023-05-10T00:14:25;13.50;94.90
40151;DHT22;25866;52.420;10.640;2023-05-10T00:16:50;13.50;95.10
40151;DHT22;25866;52.420;10.640;2023-05-10T00:19:16;13.50;95.10
40151;DHT22;25866;52.420;10.640;2023-05-10T00:21:42;13.50;95.20
40151;DHT22;25866;52.420;10.640;2023-05-10T00:24:07;13.40;95.40
40151;DHT22;25866;52.420;10.640;2023-05-10T00:26:33;13.40;95.50
40151;DHT22;25866;52.420;10.640;2023-05-10T00:29:07;13.30;95.80
40151;DHT22;25866;52.420;10.640;2023-05-10T00:31:33;13.30;95.60
40151;DHT22;25866;52.420;10.640;2023-05-10T00:33:59;13.30;95.60
40151;DHT22;25866;52.420;10.640;2023-05-10T00:36:24;13.30;95.90
40151;DHT22;25866;52.420;10.640;2023-05-10T00:38:51;13.30;95.80
40151;DHT22;25866;52.420;10.640;2023-05-10T00:41:17;13.20;96.00
40151;DHT22;25866;52.420;10.640;2023-05-10T00:43:42;13.20;96.00
40151;DHT22;25866;52.420;10.640;2023-05-10T00:46:08;13.20;96.10
40151;DHT22;25866;52.420;10.640;2023-05-10T00:48:35;13.20;96.00
40151;DHT22;25866;52.420;10.640;2023-05-10T00:51:02;13.20;96.20
40151;DHT22;25866;52.420;10.640;2023-05-10T00:53:31;13.20;96.40
40151;DHT22;25866;52.420;10.640;2023-05-10T00:55:57;13.10;96.40
40151;DHT22;25866;52.420;10.640;2023-05-10T00:58:27;13.10;96.60
40151;DHT22;25866;52.420;10.640;2023-05-10T01:00:55;13.10;96.60
40151;DHT22;25866;52.420;10.640;2023-05-10T01:03:22;13.00;96.60
40151;DHT22;25866;52.420;10.640;2023-05-10T01:05:48;13.00;96.60
40151;DHT22;25866;52.420;10.640;2023-05-10T01:08:14;13.00;96.70
40151;DHT22;25866;52.420;10.640;2023-05-10T01:10:39;13.00;96.70
40151;DHT22;25866;52.420;10.640;2023-05-10T01:13:06;13.00;96.90
40151;DHT22;25866;52.420;10.640;2023-05-10T01:15:32;13.00;97.00
40151;DHT22;25866;52.420;10.640;2023-05-10T01:17:58;12.90;97.10
40151;DHT22;25866;52.420;10.640;2023-05-10T01:20:24;13.00;97.30
40151;DHT22;25866;52.420;10.640;2023-05-10T01:23:26;12.90;97.70
40151;DHT22;25866;52.420;10.640;2023-05-10T01:37:59;12.80;97.80
40151;DHT22;25866;52.420;10.640;2023-05-10T01:46:36;12.70;98.20
40151;DHT22;25866;52.420;10.640;2023-05-10T01:49:08;12.70;98.20
40151;DHT22;25866;52.420;10.640;2023-05-10T01:52:08;12.70;98.30
40151;DHT22;25866;52.420;10.640;2023-05-10T01:54:35;12.60;98.50
40151;DHT22;25866;52.420;10.640;2023-05-10T01:57:06;12.60;98.70
40151;DHT22;25866;52.420;10.640;2023-05-10T01:59:35;12.50;98.70
40151;DHT22;25866;52.420;10.640;2023-05-10T02:02:02;12.50;98.80
40151;DHT22;25866;52.420;10.640;2023-05-10T02:04:30;12.50;99.20
40151;DHT22;25866;52.420;10.640;2023-05-10T02:06:57;12.50;98.90
40151;DHT22;25866;52.420;10.640;2023-05-10T02:09:24;12.60;99.10
40151;DHT22;25866;52.420;10.640;2023-05-10T02:11:50;12.50;99.10
40151;DHT22;25866;52.420;10.640;2023-05-10T02:14:18;12.50;99.20
40151;DHT22;25866;52.420;10.640;2023-05-10T02:16:46;12.50;99.40
40151;DHT22;25866;52.420;10.640;2023-05-10T02:19:13;12.50;99.60
40151;DHT22;25866;52.420;10.640;2023-05-10T02:21:41;12.40;99.90
40151;DHT22;25866;52.420;10.640;2023-05-10T02:24:08;12.40;99.80
40151;DHT22;25866;52.420;10.640;2023-05-10T02:26:36;12.40;99.90
40151;DHT22;25866;52.420;10.640;2023-05-10T02:29:05;12.40;99.90
40151;DHT22;25866;52.420;10.640;2023-05-10T02:31:32;12.40;99.90
40151;DHT22;25866;52.420;10.640;2023-05-10T02:33:59;12.40;99.90
40151;DHT22;25866;52.420;10.640;2023-05-10T02:36:27;12.40;99.90
40151;DHT22;25866;52.420;10.640;2023-05-10T02:39:01;12.40;99.90
40151;DHT22;25866;52.420;10.640;2023-05-10T02:41:28;12.40;99.90
40151;DHT22;25866;52.420;10.640;2023-05-10T02:43:59;12.40;99.90
40151;DHT22;25866;52.420;10.640;2023-05-10T02:46:26;12.40;99.90
40151;DHT22;25866;52.420;10.640;2023-05-10T02:48:52;12.40;99.90
40151;DHT22;25866;52.420;10.640;2023-05-10T02:51:19;12.40;99.90
40151;DHT22;25866;52.420;10.640;2023-05-10T02:53:49;12.40;99.90
40151;DHT22;25866;52.420;10.640;2023-05-10T02:56:28;12.40;99.90
40151;DHT22;25866;52.420;10.640;2023-05-10T02:58:56;12.30;99.90
40151;DHT22;25866;52.420;10.640;2023-05-10T03:01:21;12.30;99.90
40151;DHT22;25866;52.420;10.640;2023-05-10T03:03:47;12.30;99.90
40151;DHT22;25866;52.420;10.640;2023-05-10T03:06:13;12.30;99.90
40151;DHT22;25866;52.420;10.640;2023-05-10T03:08:38;12.30;99.90
40151;DHT22;25866;52.420;10.640;2023-05-10T03:19:30;12.20;99.90
40151;DHT22;25866;52.420;10.640;2023-05-10T03:21:59;12.20;99.90
40151;DHT22;25866;52.420;10.640;2023-05-10T03:24:30;12.20;99.90
40151;DHT22;25866;52.420;10.640;2023-05-10T03:26:59;12.20;99.90
40151;DHT22;25866;52.420;10.640;2023-05-10T03:29:35;12.20;99.90
40151;DHT22;25866;52.420;10.640;2023-05-10T03:32:01;12.10;99.90
40151;DHT22;25866;52.420;10.640;2023-05-10T03:34:30;12.10;99.90
40151;DHT22;25866;52.420;10.640;2023-05-10T03:36:56;12.10;99.90
40151;DHT22;25866;52.420;10.640;2023-05-10T03:39:22;12.10;99.90
40151;DHT22;25866;52.420;10.640;2023-05-10T03:41:49;12.10;99.90
40151;DHT22;25866;52.420;10.640;2023-05-10T03:44:15;12.10;99.90
40151;DHT22;25866;52.420;10.640;2023-05-10T03:46:40;12.10;99.90
40151;DHT22;25866;52.420;10.640;2023-05-10T03:49:06;12.10;99.90
40151;DHT22;25866;52.420;10.640;2023-05-10T03:51:32;12.10;99.90
40151;DHT22;25866;52.420;10.640;2023-05-10T03:53:58;12.10;99.90
40151;DHT22;25866;52.420;10.640;2023-05-10T03:56:24;12.10;99.90
40151;DHT22;25866;52.420;10.640;2023-05-10T03:58:49;12.10;99.90
40151;DHT22;25866;52.420;10.640;2023-05-10T04:01:15;12.10;99.90
40151;DHT22;25866;52.420;10.640;2023-05-10T04:03:41;12.10;99.90
40151;DHT22;25866;52.420;10.640;2023-05-10T04:06:06;12.20;99.90
40151;DHT22;25866;52.420;10.640;2023-05-10T04:08:34;12.10;99.90
40151;DHT22;25866;52.420;10.640;2023-05-10T04:11:11;12.20;99.90
40151;DHT22;25866;52.420;10.640;2023-05-10T04:13:38;12.10;99.90
40151;DHT22;25866;52.420;10.640;2023-05-10T04:16:04;12.20;99.90
40151;DHT22;25866;52.420;10.640;2023-05-10T04:18:30;12.20;99.90
40151;DHT22;25866;52.420;10.640;2023-05-10T04:21:03;12.20;99.90
40151;DHT22;25866;52.420;10.640;2023-05-10T04:23:29;12.20;99.90
40151;DHT22;25866;52.420;10.640;2023-05-10T04:26:01;12.20;99.90
40151;DHT22;25866;52.420;10.640;2023-05-10T04:28:27;12.30;99.90
40151;DHT22;25866;52.420;10.640;2023-05-10T04:31:03;12.30;99.90
40151;DHT22;25866;52.420;10.640;2023-05-10T04:33:29;12.30;99.90
40151;DHT22;25866;52.420;10.640;2023-05-10T04:35:55;12.30;99.90
40151;DHT22;25866;52.420;10.640;2023-05-10T04:38:20;12.40;99.90
40151;DHT22;25866;52.420;10.640;2023-05-10T04:40:47;12.50;99.90
40151;DHT22;25866;52.420;10.640;2023-05-10T04:43:13;12.50;99.90
40151;DHT22;25866;52.420;10.640;2023-05-10T04:45:39;12.60;99.90
40151;DHT22;25866;52.420;10.640;2023-05-10T04:48:05;12.60;99.90
40151;DHT22;25866;52.420;10.640;2023-05-10T04:50:32;12.70;99.90
40151;DHT22;25866;52.420;10.640;2023-05-10T04:52:58;12.70;99.90
40151;DHT22;25866;52.420;10.640;2023-05-10T04:55:23;12.80;99.90
40151;DHT22;25866;52.420;10.640;2023-05-10T04:57:49;12.80;99.90
40151;DHT22;25866;52.420;10.640;2023-05-10T05:00:15;12.80;99.90
40151;DHT22;25866;52.420;10.640;2023-05-10T05:02:46;12.80;99.90
40151;DHT22;25866;52.420;10.640;2023-05-10T05:05:12;12.90;99.90
40151;DHT22;25866;52.420;10.640;2023-05-10T05:07:38;12.90;99.90
40151;DHT22;25866;52.420;10.640;2023-05-10T05:10:06;12.90;99.90
40151;DHT22;25866;52.420;10.640;2023-05-10T05:12:32;13.00;99.90
40151;DHT22;25866;52.420;10.640;2023-05-10T05:14:58;13.00;99.90
40151;DHT22;25866;52.420;10.640;2023-05-10T05:17:23;13.00;99.90
40151;DHT22;25866;52.420;10.640;2023-05-10T05:19:49;13.00;99.90
40151;DHT22;25866;52.420;10.640;2023-05-10T05:22:16;13.10;99.90
40151;DHT22;25866;52.420;10.640;2023-05-10T05:24:41;13.10;99.90
40151;DHT22;25866;52.420;10.640;2023-05-10T05:27:07;13.00;99.90
40151;DHT22;25866;52.420;10.640;2023-05-10T05:29:33;13.00;99.90
40151;DHT22;25866;52.420;10.640;2023-05-10T05:32:01;13.00;99.90
40151;DHT22;25866;52.420;10.640;2023-05-10T05:34:26;13.00;99.90
40151;DHT22;25866;52.420;10.640;2023-05-10T05:36:52;13.00;99.90
40151;DHT22;25866;52.420;10.640;2023-05-10T05:39:19;12.90;99.90
40151;DHT22;25866;52.420;10.640;2023-05-10T05:41:47;12.90;99.90
40151;DHT22;25866;52.420;10.640;2023-05-10T05:44:12;12.90;99.90
40151;DHT22;25866;52.420;10.640;2023-05-10T05:46:38;12.80;99.90
40151;DHT22;25866;52.420;10.640;2023-05-10T05:49:04;12.80;99.90
40151;DHT22;25866;52.420;10.640;2023-05-10T05:51:30;12.70;99.90
40151;DHT22;25866;52.420;10.640;2023-05-10T05:53:56;12.70;99.90
40151;DHT22;25866;52.420;10.640;2023-05-10T05:56:22;12.70;99.90
40151;DHT22;25866;52.420;10.640;2023-05-10T05:58:52;12.70;99.90
40151;DHT22;25866;52.420;10.640;2023-05-10T06:01:18;12.70;99.90
40151;DHT22;25866;52.420;10.640;2023-05-10T06:03:50;12.70;99.90
40151;DHT22;25866;52.420;10.640;2023-05-10T06:06:16;12.70;99.90
40151;DHT22;25866;52.420;10.640;2023-05-10T06:08:41;12.70;99.90
40151;DHT22;25866;52.420;10.640;2023-05-10T06:11:07;12.70;99.90
40151;DHT22;25866;52.420;10.640;2023-05-10T06:13:40;12.70;99.90
40151;DHT22;25866;52.420;10.640;2023-05-10T06:16:09;12.80;99.90
40151;DHT22;25866;52.420;10.640;2023-05-10T06:18:35;12.90;99.90
40151;DHT22;25866;52.420;10.640;2023-05-10T06:21:00;13.00;99.90
40151;DHT22;25866;52.420;10.640;2023-05-10T06:23:27;13.10;99.90
40151;DHT22;25866;52.420;10.640;2023-05-10T06:25:53;13.20;99.90
40151;DHT22;25866;52.420;10.640;2023-05-10T06:28:18;13.20;99.90
40151;DHT22;25866;52.420;10.640;2023-05-10T06:30:44;13.30;99.90
40151;DHT22;25866;52.420;10.640;2023-05-10T06:33:10;13.30;99.90
40151;DHT22;25866;52.420;10.640;2023-05-10T06:35:35;13.40;99.90
40151;DHT22;25866;52.420;10.640;2023-05-10T06:38:02;13.30;99.90
40151;DHT22;25866;52.420;10.640;2023-05-10T06:40:27;13.40;99.90
40151;DHT22;25866;52.420;10.640;2023-05-10T06:42:54;13.50;99.90
40151;DHT22;25866;52.420;10.640;2023-05-10T06:45:20;13.50;99.90
40151;DHT22;25866;52.420;10.640;2023-05-10T06:47:46;13.50;99.90
40151;DHT22;25866;52.420;10.640;2023-05-10T06:50:11;13.60;99.90
40151;DHT22;25866;52.420;10.640;2023-05-10T06:52:57;13.70;99.90
40151;DHT22;25866;52.420;10.640;2023-05-10T06:55:23;13.80;99.90
40151;DHT22;25866;52.420;10.640;2023-05-10T06:57:49;13.80;99.90
40151;DHT22;25866;52.420;10.640;2023-05-10T07:00:16;13.90;99.90
40151;DHT22;25866;52.420;10.640;2023-05-10T07:02:43;13.90;99.90
40151;DHT22;25866;52.420;10.640;2023-05-10T07:05:09;14.00;99.90
40151;DHT22;25866;52.420;10.640;2023-05-10T07:07:34;14.00;99.90
40151;DHT22;25866;52.420;10.640;2023-05-10T07:10:00;14.10;99.90
40151;DHT22;25866;52.420;10.640;2023-05-10T07:12:26;14.20;99.90
40151;DHT22;25866;52.420;10.640;2023-05-10T07:14:52;14.30;99.90
40151;DHT22;25866;52.420;10.640;2023-05-10T07:17:18;14.30;99.90
40151;DHT22;25866;52.420;10.640;2023-05-10T07:19:44;14.40;99.90
40151;DHT22;25866;52.420;10.640;2023-05-10T07:22:09;14.40;99.90
40151;DHT22;25866;52.420;10.640;2023-05-10T07:24:41;14.50;99.90
40151;DHT22;25866;52.420;10.640;2023-05-10T07:27:07;14.60;99.90
40151;DHT22;25866;52.420;10.640;2023-05-10T07:29:33;14.80;99.90
40151;DHT22;25866;52.420;10.640;2023-05-10T07:31:59;14.90;99.90
40151;DHT22;25866;52.420;10.640;2023-05-10T07:34:25;15.00;99.90
40151;DHT22;25866;52.420;10.640;2023-05-10T07:36:51;15.10;99.90
40151;DHT22;25866;52.420;10.640;2023-05-10T07:39:17;15.00;99.90
40151;DHT22;25866;52.420;10.640;2023-05-10T07:41:43;14.90;99.90
40151;DHT22;25866;52.420;10.640;2023-05-10T07:44:10;14.90;99.90
40151;DHT22;25866;52.420;10.640;2023-05-10T07:46:35;14.90;99.90
40151;DHT22;25866;52.420;10.640;2023-05-10T07:49:01;14.90;99.90
40151;DHT22;25866;52.420;10.640;2023-05-10T07:51:30;14.80;99.90
40151;DHT22;25866;52.420;10.640;2023-05-10T07:53:55;14.70;99.90
40151;DHT22;25866;52.420;10.640;2023-05-10T07:56:24;14.60;99.90
40151;DHT22;25866;52.420;10.640;2023-05-10T07:58:51;14.60;99.90
40151;DHT22;25866;52.420;10.640;2023-05-10T08:01:17;14.40;99.90
40151;DHT22;25866;52.420;10.640;2023-05-10T08:03:43;14.30;99.90
40151;DHT22;25866;52.420;10.640;2023-05-10T08:06:09;14.20;99.90
40151;DHT22;25866;52.420;10.640;2023-05-10T08:08:34;14.30;99.90
40151;DHT22;25866;52.420;10.640;2023-05-10T08:11:00;14.30;99.90
40151;DHT22;25866;52.420;10.640;2023-05-10T08:13:25;14.30;99.90
40151;DHT22;25866;52.420;10.640;2023-05-10T08:15:53;14.40;99.90
40151;DHT22;25866;52.420;10.640;2023-05-10T08:18:19;14.50;99.90
40151;DHT22;25866;52.420;10.640;2023-05-10T08:20:45;14.40;99.90
40151;DHT22;25866;52.420;10.640;2023-05-10T08:23:12;14.50;99.90
40151;DHT22;25866;52.420;10.640;2023-05-10T08:25:40;14.40;99.90
40151;DHT22;25866;52.420;10.640;2023-05-10T08:28:05;14.50;99.90
40151;DHT22;25866;52.420;10.640;2023-05-10T08:30:31;14.50;99.90
40151;DHT22;25866;52.420;10.640;2023-05-10T08:32:57;14.50;99.90
40151;DHT22;25866;52.420;10.640;2023-05-10T08:35:22;14.50;99.90
40151;DHT22;25866;52.420;10.640;2023-05-10T08:37:48;14.40;99.90
40151;DHT22;25866;52.420;10.640;2023-05-10T08:40:14;14.30;99.90
40151;DHT22;25866;52.420;10.640;2023-05-10T08:42:45;14.30;99.90
40151;DHT22;25866;52.420;10.640;2023-05-10T08:45:16;14.10;99.90
40151;DHT22;25866;52.420;10.640;2023-05-10T08:47:42;14.00;99.90
40151;DHT22;25866;52.420;10.640;2023-05-10T08:50:08;13.90;99.90
40151;DHT22;25866;52.420;10.640;2023-05-10T08:52:38;13.90;99.90
40151;DHT22;25866;52.420;10.640;2023-05-10T08:55:05;13.80;99.90
40151;DHT22;25866;52.420;10.640;2023-05-10T08:57:32;13.70;99.90
40151;DHT22;25866;52.420;10.640;2023-05-10T08:59:58;13.70;99.90
40151;DHT22;25866;52.420;10.640;2023-05-10T09:02:26;13.60;99.90
40151;DHT22;25866;52.420;10.640;2023-05-10T09:04:52;13.60;99.90
40151;DHT22;25866;52.420;10.640;2023-05-10T09:07:19;13.50;99.90
40151;DHT22;25866;52.420;10.640;2023-05-10T09:09:46;13.50;99.90
40151;DHT22;25866;52.420;10.640;2023-05-10T09:12:13;13.40;99.90
40151;DHT22;25866;52.420;10.640;2023-05-10T09:14:43;13.50;99.90
40151;DHT22;25866;52.420;10.640;2023-05-10T09:17:10;13.50;99.90
40151;DHT22;25866;52.420;10.640;2023-05-10T09:19:36;13.50;99.90
40151;DHT22;25866;52.420;10.640;2023-05-10T09:22:05;13.50;99.90
40151;DHT22;25866;52.420;10.640;2023-05-10T09:24:47;13.50;99.90
40151;DHT22;25866;52.420;10.640;2023-05-10T09:27:13;13.50;99.90
40151;DHT22;25866;52.420;10.640;2023-05-10T09:29:39;13.50;99.90
40151;DHT22;25866;52.420;10.640;2023-05-10T09:32:05;13.50;99.90
40151;DHT22;25866;52.420;10.640;2023-05-10T09:34:32;13.60;99.90
40151;DHT22;25866;52.420;10.640;2023-05-10T09:37:00;13.60;99.90
40151;DHT22;25866;52.420;10.640;2023-05-10T09:39:33;13.70;99.90
40151;DHT22;25866;52.420;10.640;2023-05-10T09:42:02;13.70;99.90
40151;DHT22;25866;52.420;10.640;2023-05-10T09:44:34;13.80;99.90
40151;DHT22;25866;52.420;10.640;2023-05-10T09:47:06;13.90;99.90
40151;DHT22;25866;52.420;10.640;2023-05-10T09:49:31;14.00;99.90
40151;DHT22;25866;52.420;10.640;2023-05-10T09:52:05;14.00;99.90
40151;DHT22;25866;52.420;10.640;2023-05-10T09:54:31;14.10;99.90
40151;DHT22;25866;52.420;10.640;2023-05-10T09:56:57;14.10;99.90
40151;DHT22;25866;52.420;10.640;2023-05-10T09:59:25;14.20;99.90
40151;DHT22;25866;52.420;10.640;2023-05-10T10:01:53;14.20;99.90
40151;DHT22;25866;52.420;10.640;2023-05-10T10:04:21;14.30;99.90
40151;DHT22;25866;52.420;10.640;2023-05-10T10:06:47;14.30;99.90
40151;DHT22;25866;52.420;10.640;2023-05-10T10:09:23;14.30;99.90
40151;DHT22;25866;52.420;10.640;2023-05-10T10:11:49;14.30;99.90
40151;DHT22;25866;52.420;10.640;2023-05-10T10:14:18;14.40;99.90
40151;DHT22;25866;52.420;10.640;2023-05-10T10:16:47;14.30;99.90
40151;DHT22;25866;52.420;10.640;2023-05-10T10:19:15;14.40;99.90
40151;DHT22;25866;52.420;10.640;2023-05-10T10:21:41;14.40;99.90
40151;DHT22;25866;52.420;10.640;2023-05-10T10:24:07;14.30;99.90
40151;DHT22;25866;52.420;10.640;2023-05-10T10:26:33;14.40;99.90
40151;DHT22;25866;52.420;10.640;2023-05-10T10:34:38;14.40;99.90
40151;DHT22;25866;52.420;10.640;2023-05-10T10:37:05;14.50;99.90
40151;DHT22;25866;52.420;10.640;2023-05-10T10:39:32;14.50;99.90
40151;DHT22;25866;52.420;10.640;2023-05-10T10:41:58;14.50;99.90
40151;DHT22;25866;52.420;10.640;2023-05-10T10:52:27;14.60;99.90
40151;DHT22;25866;52.420;10.640;2023-05-10T10:55:05;14.70;99.90
40151;DHT22;25866;52.420;10.640;2023-05-10T11:00:22;14.70;99.90
40151;DHT22;25866;52.420;10.640;2023-05-10T11:05:44;14.90;99.90
40151;DHT22;25866;52.420;10.640;2023-05-10T11:08:41;15.00;99.90
40151;DHT22;25866;52.420;10.640;2023-05-10T11:11:14;15.00;99.90
40151;DHT22;25866;52.420;10.640;2023-05-10T11:13:47;15.00;99.90
40151;DHT22;25866;52.420;10.640;2023-05-10T11:19:03;15.00;99.90
40151;DHT22;25866;52.420;10.640;2023-05-10T11:21:32;15.10;99.90
40151;DHT22;25866;52.420;10.640;2023-05-10T11:24:01;15.10;99.90
40151;DHT22;25866;52.420;10.640;2023-05-10T11:26:33;15.00;99.90
40151;DHT22;25866;52.420;10.640;2023-05-10T11:28:59;14.80;99.90
40151;DHT22;25866;52.420;10.640;2023-05-10T11:31:27;14.80;99.90
40151;DHT22;25866;52.420;10.640;2023-05-10T11:33:55;14.80;99.90
40151;DHT22;25866;52.420;10.640;2023-05-10T11:36:29;14.70;99.90
40151;DHT22;25866;52.420;10.640;2023-05-10T11:38:57;14.70;99.90
40151;DHT22;25866;52.420;10.640;2023-05-10T11:41:24;14.70;99.90
40151;DHT22;25866;52.420;10.640;2023-05-10T11:43:52;14.60;99.90
40151;DHT22;25866;52.420;10.640;2023-05-10T11:46:23;14.50;99.90
40151;DHT22;25866;52.420;10.640;2023-05-10T11:48:50;14.40;99.90
40151;DHT22;25866;52.420;10.640;2023-05-10T11:51:23;14.30;99.90
40151;DHT22;25866;52.420;10.640;2023-05-10T11:53:50;14.20;99.90
40151;DHT22;25866;52.420;10.640;2023-05-10T11:56:17;14.20;99.90
40151;DHT22;25866;52.420;10.640;2023-05-10T11:58:56;14.20;99.90
40151;DHT22;25866;52.420;10.640;2023-05-10T12:01:24;14.20;99.90
40151;DHT22;25866;52.420;10.640;2023-05-10T12:03:51;14.20;99.90
40151;DHT22;25866;52.420;10.640;2023-05-10T12:06:18;14.20;99.90
40151;DHT22;25866;52.420;10.640;2023-05-10T12:08:47;14.30;99.90
40151;DHT22;25866;52.420;10.640;2023-05-10T12:11:14;14.40;99.90
40151;DHT22;25866;52.420;10.640;2023-05-10T12:13:44;14.40;99.90
40151;DHT22;25866;52.420;10.640;2023-05-10T12:16:22;14.40;99.90
40151;DHT22;25866;52.420;10.640;2023-05-10T12:18:55;14.40;99.90
40151;DHT22;25866;52.420;10.640;2023-05-10T12:21:21;14.50;99.90
40151;DHT22;25866;52.420;10.640;2023-05-10T12:24:09;14.60;99.90
40151;DHT22;25866;52.420;10.640;2023-05-10T12:26:35;14.70;99.90
40151;DHT22;25866;52.420;10.640;2023-05-10T12:29:14;14.90;99.90
40151;DHT22;25866;52.420;10.640;2023-05-10T12:31:57;15.00;99.90
40151;DHT22;25866;52.420;10.640;2023-05-10T12:34:34;15.10;99.90
40151;DHT22;25866;52.420;10.640;2023-05-10T12:37:02;15.20;99.90
40151;DHT22;25866;52.420;10.640;2023-05-10T12:39:47;15.30;99.90
40151;DHT22;25866;52.420;10.640;2023-05-10T12:42:13;15.30;99.90
40151;DHT22;25866;52.420;10.640;2023-05-10T12:44:39;15.30;99.90
40151;DHT22;25866;52.420;10.640;2023-05-10T12:47:05;15.30;99.90
40151;DHT22;25866;52.420;10.640;2023-05-10T12:49:32;15.40;99.90
40151;DHT22;25866;52.420;10.640;2023-05-10T12:51:58;15.40;99.90
40151;DHT22;25866;52.420;10.640;2023-05-10T12:54:30;15.30;99.90
40151;DHT22;25866;52.420;10.640;2023-05-10T12:56:55;15.50;99.90
40151;DHT22;25866;52.420;10.640;2023-05-10T12:59:22;15.60;99.90
40151;DHT22;25866;52.420;10.640;2023-05-10T13:01:48;15.70;99.90
40151;DHT22;25866;52.420;10.640;2023-05-10T13:04:14;15.80;99.90
40151;DHT22;25866;52.420;10.640;2023-05-10T13:06:39;15.90;99.90
40151;DHT22;25866;52.420;10.640;2023-05-10T13:09:07;15.90;99.90
40151;DHT22;25866;52.420;10.640;2023-05-10T13:11:33;16.00;99.90
40151;DHT22;25866;52.420;10.640;2023-05-10T13:13:59;16.00;99.90
40151;DHT22;25866;52.420;10.640;2023-05-10T13:16:24;16.10;99.90
40151;DHT22;25866;52.420;10.640;2023-05-10T13:18:51;16.20;99.90
40151;DHT22;25866;52.420;10.640;2023-05-10T13:21:17;16.20;99.90
40151;DHT22;25866;52.420;10.640;2023-05-10T13:23:46;16.30;99.90
40151;DHT22;25866;52.420;10.640;2023-05-10T13:26:12;16.30;99.90
40151;DHT22;25866;52.420;10.640;2023-05-10T13:28:44;16.40;99.90
40151;DHT22;25866;52.420;10.640;2023-05-10T13:31:11;16.40;99.90
40151;DHT22;25866;52.420;10.640;2023-05-10T13:33:36;16.50;99.90
40151;DHT22;25866;52.420;10.640;2023-05-10T13:36:02;16.50;99.90
40151;DHT22;25866;52.420;10.640;2023-05-10T13:38:28;16.50;99.90
40151;DHT22;25866;52.420;10.640;2023-05-10T13:41:03;16.60;99.90
40151;DHT22;25866;52.420;10.640;2023-05-10T13:43:29;16.70;99.90
40151;DHT22;25866;52.420;10.640;2023-05-10T13:45:55;16.80;99.90
40151;DHT22;25866;52.420;10.640;2023-05-10T13:48:21;16.90;99.90
40151;DHT22;25866;52.420;10.640;2023-05-10T13:50:46;16.90;99.90
40151;DHT22;25866;52.420;10.640;2023-05-10T13:53:12;17.00;99.90
40151;DHT22;25866;52.420;10.640;2023-05-10T13:55:38;17.20;99.90
40151;DHT22;25866;52.420;10.640;2023-05-10T13:58:04;17.30;99.90
40151;DHT22;25866;52.420;10.640;2023-05-10T14:00:31;17.30;99.90
40151;DHT22;25866;52.420;10.640;2023-05-10T14:02:57;17.40;99.90
40151;DHT22;25866;52.420;10.640;2023-05-10T14:05:22;17.40;99.90
40151;DHT22;25866;52.420;10.640;2023-05-10T14:07:49;17.40;99.90
40151;DHT22;25866;52.420;10.640;2023-05-10T14:10:17;17.40;99.90
40151;DHT22;25866;52.420;10.640;2023-05-10T14:12:46;17.40;99.90
40151;DHT22;25866;52.420;10.640;2023-05-10T14:15:12;17.50;99.90
40151;DHT22;25866;52.420;10.640;2023-05-10T14:17:37;17.50;99.90
40151;DHT22;25866;52.420;10.640;2023-05-10T14:20:03;17.60;99.90
40151;DHT22;25866;52.420;10.640;2023-05-10T14:22:29;17.60;99.90
40151;DHT22;25866;52.420;10.640;2023-05-10T14:24:55;17.50;99.90
40151;DHT22;25866;52.420;10.640;2023-05-10T14:27:21;17.50;99.90
40151;DHT22;25866;52.420;10.640;2023-05-10T14:29:47;17.50;99.90
40151;DHT22;25866;52.420;10.640;2023-05-10T14:32:13;17.60;99.90
40151;DHT22;25866;52.420;10.640;2023-05-10T14:34:39;17.60;99.90
40151;DHT22;25866;52.420;10.640;2023-05-10T14:37:04;17.50;99.90
40151;DHT22;25866;52.420;10.640;2023-05-10T14:39:30;17.40;99.90
40151;DHT22;25866;52.420;10.640;2023-05-10T14:41:58;17.40;99.90
40151;DHT22;25866;52.420;10.640;2023-05-10T14:44:24;17.30;99.90
40151;DHT22;25866;52.420;10.640;2023-05-10T14:46:50;17.20;99.90
40151;DHT22;25866;52.420;10.640;2023-05-10T14:49:16;17.20;99.90
40151;DHT22;25866;52.420;10.640;2023-05-10T14:51:42;17.10;99.90
40151;DHT22;25866;52.420;10.640;2023-05-10T14:54:07;17.00;99.90
40151;DHT22;25866;52.420;10.640;2023-05-10T14:56:33;17.00;99.90
40151;DHT22;25866;52.420;10.640;2023-05-10T14:58:59;17.00;99.90
40151;DHT22;25866;52.420;10.640;2023-05-10T15:01:26;17.00;99.90
40151;DHT22;25866;52.420;10.640;2023-05-10T15:03:52;16.90;99.90
40151;DHT22;25866;52.420;10.640;2023-05-10T15:06:23;17.00;99.90
40151;DHT22;25866;52.420;10.640;2023-05-10T15:08:50;17.00;99.90
40151;DHT22;25866;52.420;10.640;2023-05-10T15:11:19;17.00;99.90
40151;DHT22;25866;52.420;10.640;2023-05-10T15:13:45;17.00;99.90
40151;DHT22;25866;52.420;10.640;2023-05-10T15:16:11;17.00;99.90
40151;DHT22;25866;52.420;10.640;2023-05-10T15:18:37;17.00;99.90
40151;DHT22;25866;52.420;10.640;2023-05-10T15:21:03;17.00;99.90
40151;DHT22;25866;52.420;10.640;2023-05-10T15:23:29;17.00;99.90
40151;DHT22;25866;52.420;10.640;2023-05-10T15:25:55;17.00;99.90
40151;DHT22;25866;52.420;10.640;2023-05-10T15:28:21;16.90;99.90
40151;DHT22;25866;52.420;10.640;2023-05-10T15:30:49;16.90;99.90
40151;DHT22;25866;52.420;10.640;2023-05-10T15:33:15;16.90;99.90
40151;DHT22;25866;52.420;10.640;2023-05-10T15:35:41;17.00;99.90
40151;DHT22;25866;52.420;10.640;2023-05-10T15:38:07;17.00;99.90
40151;DHT22;25866;52.420;10.640;2023-05-10T15:40:37;17.10;99.90
40151;DHT22;25866;52.420;10.640;2023-05-10T15:43:03;17.20;99.90
40151;DHT22;25866;52.420;10.640;2023-05-10T15:45:30;17.30;99.90
40151;DHT22;25866;52.420;10.640;2023-05-10T15:47:57;17.30;99.90
40151;DHT22;25866;52.420;10.640;2023-05-10T15:50:22;17.40;99.90
40151;DHT22;25866;52.420;10.640;2023-05-10T15:52:50;17.50;99.90
40151;DHT22;25866;52.420;10.640;2023-05-10T15:55:16;17.50;99.90
40151;DHT22;25866;52.420;10.640;2023-05-10T15:57:43;17.50;99.90
40151;DHT22;25866;52.420;10.640;2023-05-10T16:00:10;17.60;99.90
40151;DHT22;25866;52.420;10.640;2023-05-10T16:02:40;17.50;99.90
40151;DHT22;25866;52.420;10.640;2023-05-10T16:05:06;17.50;99.90
40151;DHT22;25866;52.420;10.640;2023-05-10T16:07:32;17.50;99.90